Norristown, GA (30447)

11:29 PM EST on November 25, 2014 (GMT -0500)
Emanuel County | Change Station
CLOSE
Current Station
Airport
Location: Swainsboro,
Elevation: 328 ft
Nearby Weather Stations

Elev 328 ft 32.61 °N, 82.37 °W | Updated 14 minutes ago

Rain
Rain
52 °F
Feels Like 52 °F
N
9
Wind Variable Wind from NW

Today
High -- | Low -- °F
--% Chance of Precip.
Yesterday
High -- | Low -- °F
Precip. -- in
7:08 AM 5:25 PM
Waxing Crescent, 16% visible
Pressure 30.01 in
Visibility 10.0 miles
Clouds Scattered Clouds 800 ft
Overcast 2200 ft
Dew Point 52 °F
Humidity 100%
Rainfall 0.00 in
Snow Depth Not available.
UV 0 out of 12
Pollen 1.90 out of 12
Air Quality Not available.
Flu Activity Not available.
METAR KSBO 260415Z AUTO 32008KT 10SM SCT008 OVC022 11/11 A3001 RMK AO2

More Conditions Fewer Conditions

Pressure 30.01 in
Visibility 10.0 miles
Clouds Scattered Clouds 800 ft
Overcast 2200 ft
Dew Point 52 °F
Humidity 100%
Rainfall 0.00 in
Snow Depth Not available.
UV 0 out of 12
Pollen 1.90 out of 12
Air Quality Not available.
Flu Activity Not available.
METAR KSBO 260415Z AUTO 32008KT 10SM SCT008 OVC022 11/11 A3001 RMK AO2

More Conditions Fewer Conditions

10-Day Weather Forecast

Almanac

Astronomy

Nov. 25, 2014 Rise Set
Actual Time
Civil Twilight
Nautical Twilight
Astronomical Twilight
Moon
Length of Visible Light
Length of Day
Tomorrow will be .
, % of the Moon is Illuminated

Today's Extremes

State Highs State Lows

Community

WunderPhotos

Upload Photos

1,773,683 photos uploaded!

WunderBlogs® & News

Nearby

Air Quality

  Air Quality AQ Index Pollutant
Not available.

Snow Depth

Station Depth Elevation

Earthquake Activity

City Distance Mag. Time & Date
Minimum magnitude displayed is 2.5.

Coastal Water Temperatures

Place Temperature

Nearby Weather Stations